Time;durP1;ratioP1;P1;durP2;ratioP2;P2;SDS_P1;SDS_P2;PMS_P1;PMS_P2;Temp;Humidity;BMP_temperature;BMP_pressure;BME280_temperature;BME280_humidity;BME280_pressure;Samples;Min_cycle;Max_cycle;Signal;HPM_P1;HPM_P2
2024/02/07 06:01:11;;;;;;;6.80;2.30;;;8.80;74.70;;;;;;4539849;23;20535;-76
2024/02/07 06:03:13;;;;;;;6.68;2.28;;;8.70;74.60;;;;;;4102681;29;20047;-77
2024/02/07 06:05:15;;;;;;;6.30;2.55;;;8.70;74.60;;;;;;4103256;29;20047;-77
2024/02/07 06:07:16;;;;;;;8.23;2.80;;;8.70;74.60;;;;;;4103543;29;20106;-77
2024/02/07 06:09:18;;;;;;;5.47;2.30;;;8.80;74.70;;;;;;4103653;29;20051;-77
2024/02/07 06:11:28;;;;;;;5.72;2.40;;;8.80;74.50;;;;;;4103402;29;20051;-76
2024/02/07 06:13:31;;;;;;;5.13;2.20;;;8.80;74.50;;;;;;4103733;29;20051;-77
2024/02/07 06:15:33;;;;;;;6.03;2.42;;;8.80;74.50;;;;;;4103349;29;20055;-77
2024/02/07 06:17:36;;;;;;;4.38;1.90;;;8.80;74.50;;;;;;4103693;29;20526;-77
2024/02/07 06:19:38;;;;;;;5.63;2.60;;;8.80;74.50;;;;;;4103538;29;20540;-77
2024/02/07 06:21:40;;;;;;;8.90;2.25;;;8.80;74.50;;;;;;4103211;29;20519;-76
2024/02/07 06:23:41;;;;;;;7.32;2.55;;;8.80;74.60;;;;;;4103210;29;20059;-76
2024/02/07 06:25:44;;;;;;;6.63;2.40;;;8.80;74.60;;;;;;4103256;29;20049;-77
2024/02/07 06:27:46;;;;;;;6.00;2.38;;;8.80;74.50;;;;;;4103302;29;20087;-76
2024/02/07 06:29:47;;;;;;;6.38;2.28;;;8.80;74.40;;;;;;4103390;29;20501;-76
2024/02/07 06:31:49;;;;;;;4.50;2.10;;;8.80;74.50;;;;;;4103284;29;20047;-77
2024/02/07 06:33:53;;;;;;;7.38;2.55;;;8.80;74.40;;;;;;4103123;29;20047;-77
2024/02/07 06:35:55;;;;;;;5.00;2.28;;;8.80;74.50;;;;;;4102862;29;20083;-77
2024/02/07 06:37:56;;;;;;;4.80;2.08;;;8.80;74.50;;;;;;4103125;29;20493;-77
2024/02/07 06:39:58;;;;;;;6.20;2.50;;;8.80;74.50;;;;;;4103165;29;20110;-77
2024/02/07 06:42:00;;;;;;;6.35;2.50;;;8.80;74.60;;;;;;4103122;29;20481;-77
2024/02/07 06:44:02;;;;;;;7.50;2.53;;;8.80;74.50;;;;;;4102810;29;20047;-78
2024/02/07 06:46:04;;;;;;;5.97;2.10;;;8.90;74.40;;;;;;4103127;29;20378;-77
2024/02/07 06:48:07;;;;;;;7.35;2.65;;;8.90;74.30;;;;;;4103033;29;20114;-76
2024/02/07 06:50:11;;;;;;;8.27;2.67;;;8.90;74.10;;;;;;4102984;29;20106;-76
2024/02/07 06:52:12;;;;;;;5.72;2.28;;;8.90;74.10;;;;;;4102824;29;20047;-76
2024/02/07 06:54:14;;;;;;;6.45;2.33;;;8.90;74.10;;;;;;4103039;29;20472;-77
2024/02/07 06:56:15;;;;;;;6.50;2.10;;;8.90;74.10;;;;;;4102778;29;20051;-77
2024/02/07 06:58:17;;;;;;;7.38;2.42;;;9.00;74.10;;;;;;4102701;29;20054;-76
2024/02/07 07:00:19;;;;;;;7.03;2.17;;;9.00;74.00;;;;;;4102626;29;20096;-76
2024/02/07 07:02:21;;;;;;;7.22;2.13;;;9.00;74.00;;;;;;4102319;29;20098;-76
2024/02/07 07:04:23;;;;;;;5.18;2.40;;;9.00;73.90;;;;;;4102590;29;20055;-77
2024/02/07 07:06:27;;;;;;;5.20;1.98;;;9.00;73.80;;;;;;4102592;29;20051;-76
2024/02/07 07:08:29;;;;;;;6.10;2.10;;;9.00;73.80;;;;;;4102478;29;20058;-76
2024/02/07 07:10:31;;;;;;;7.18;2.95;;;9.00;73.70;;;;;;4102064;29;20051;-77
2024/02/07 07:12:33;;;;;;;5.72;2.20;;;9.00;73.70;;;;;;4102314;29;20055;-76
2024/02/07 07:14:39;;;;;;;5.47;2.40;;;9.00;73.50;;;;;;4102264;28;20043;-77
2024/02/07 07:16:41;;;;;;;6.30;2.88;;;9.00;73.40;;;;;;4102515;29;20052;-77
2024/02/07 07:18:43;;;;;;;8.45;2.40;;;9.10;73.40;;;;;;4102738;29;20051;-76
2024/02/07 07:20:44;;;;;;;5.85;2.38;;;9.00;73.40;;;;;;4102215;29;20477;-77
2024/02/07 07:22:48;;;;;;;5.70;2.00;;;9.10;73.40;;;;;;4102471;29;20043;-77
2024/02/07 07:24:49;;;;;;;5.22;1.95;;;9.10;73.30;;;;;;4102298;29;20055;-77
2024/02/07 07:26:51;;;;;;;6.85;2.38;;;9.10;73.20;;;;;;4102345;29;20115;-77
2024/02/07 07:28:54;;;;;;;8.27;2.50;;;9.10;73.20;;;;;;4102084;29;20051;-77
2024/02/07 07:30:57;;;;;;;7.75;2.35;;;9.10;73.20;;;;;;4102194;29;20055;-77
2024/02/07 07:33:00;;;;;;;6.28;2.05;;;9.10;73.30;;;;;;4102271;29;20091;-77
2024/02/07 07:35:02;;;;;;;8.30;2.30;;;9.10;73.30;;;;;;4102480;29;20054;-76
2024/02/07 07:37:04;;;;;;;8.90;2.55;;;9.10;73.20;;;;;;4102266;29;20115;-77
2024/02/07 07:39:08;;;;;;;5.97;2.60;;;9.20;73.20;;;;;;4102049;29;20090;-76
2024/02/07 07:41:10;;;;;;;5.90;2.55;;;9.20;73.20;;;;;;4102216;29;20483;-77
2024/02/07 07:43:12;;;;;;;7.07;2.58;;;9.20;73.20;;;;;;4101885;29;20083;-76
2024/02/07 07:45:13;;;;;;;6.10;2.40;;;9.20;73.20;;;;;;4102156;29;20121;-77
2024/02/07 07:47:15;;;;;;;7.05;2.30;;;9.20;73.10;;;;;;4101851;29;20134;-77
2024/02/07 07:49:18;;;;;;;7.35;2.38;;;9.20;73.10;;;;;;4101933;29;20051;-76
2024/02/07 07:51:20;;;;;;;6.88;2.15;;;9.20;73.10;;;;;;4102109;29;20078;-76
2024/02/07 07:53:21;;;;;;;7.30;2.45;;;9.20;73.10;;;;;;4102128;29;20134;-76
2024/02/07 07:55:24;;;;;;;6.53;2.30;;;9.30;73.10;;;;;;4102213;29;20499;-77
2024/02/07 07:57:26;;;;;;;6.30;2.40;;;9.20;73.00;;;;;;4101790;29;20106;-76
2024/02/07 07:59:28;;;;;;;8.95;2.60;;;9.30;73.10;;;;;;4101908;29;20397;-76
2024/02/07 08:01:30;;;;;;;7.72;2.80;;;9.30;72.90;;;;;;4101559;29;20059;-76
2024/02/07 08:03:32;;;;;;;7.38;2.35;;;9.30;72.80;;;;;;4101910;29;20186;-76
2024/02/07 08:05:34;;;;;;;7.07;2.13;;;9.30;72.80;;;;;;4101811;29;20051;-77
2024/02/07 08:07:36;;;;;;;6.68;2.65;;;9.30;72.80;;;;;;4101668;29;20055;-77
2024/02/07 08:09:38;;;;;;;7.07;2.35;;;9.40;72.80;;;;;;4101790;29;20047;-77
2024/02/07 08:11:41;;;;;;;10.68;2.38;;;9.40;72.80;;;;;;4101680;29;20098;-77
2024/02/07 08:13:43;;;;;;;7.10;2.65;;;9.40;72.70;;;;;;4101629;29;20047;-76
2024/02/07 08:15:46;;;;;;;8.13;3.00;;;9.40;72.80;;;;;;4101826;29;20043;-76
2024/02/07 08:17:48;;;;;;;7.32;2.67;;;9.40;73.60;;;;;;4101356;29;20055;-76
2024/02/07 08:19:49;;;;;;;5.93;2.38;;;9.40;72.90;;;;;;4101662;29;20087;-76
2024/02/07 08:21:51;;;;;;;8.07;2.50;;;9.40;73.00;;;;;;4101766;29;20461;-77
2024/02/07 08:23:54;;;;;;;6.93;2.58;;;9.40;73.10;;;;;;4101596;29;20051;-77
2024/02/07 08:25:56;;;;;;;7.72;2.50;;;9.40;73.00;;;;;;4100572;28;20107;-76
2024/02/07 08:27:59;;;;;;;4.85;2.35;;;9.40;73.20;;;;;;4101524;29;20055;-77
2024/02/07 08:30:01;;;;;;;8.10;2.92;;;9.40;73.20;;;;;;4101078;29;20490;-76
2024/02/07 08:32:03;;;;;;;7.40;2.63;;;9.40;73.40;;;;;;4101100;29;20138;-76
2024/02/07 08:34:05;;;;;;;8.05;2.92;;;9.40;73.50;;;;;;4100905;29;20058;-77
2024/02/07 08:36:08;;;;;;;6.20;2.67;;;9.40;73.50;;;;;;4101285;29;20055;-77
2024/02/07 08:38:10;;;;;;;7.40;2.70;;;9.40;73.60;;;;;;4101156;29;20138;-76
2024/02/07 08:40:12;;;;;;;6.32;3.05;;;9.40;73.60;;;;;;4101114;29;20111;-76
2024/02/07 08:42:14;;;;;;;6.18;2.53;;;9.40;73.60;;;;;;4100961;29;20062;-76
2024/02/07 08:44:17;;;;;;;8.15;2.85;;;9.40;73.70;;;;;;4101247;29;20103;-77
2024/02/07 08:46:19;;;;;;;7.55;2.88;;;9.40;73.70;;;;;;4101041;29;20094;-76
2024/02/07 08:48:21;;;;;;;6.95;2.63;;;9.40;73.70;;;;;;4100867;29;20055;-77
2024/02/07 08:50:21;;;;;;;7.40;3.22;;;9.40;73.80;;;;;;4100877;29;20094;-76
2024/02/07 08:52:23;;;;;;;5.68;2.53;;;9.40;73.60;;;;;;4100516;29;20492;-76
2024/02/07 08:54:25;;;;;;;7.65;3.30;;;9.40;73.70;;;;;;4101010;29;20051;-77
2024/02/07 08:56:28;;;;;;;9.65;3.00;;;9.50;73.80;;;;;;4100811;29;20065;-76
2024/02/07 08:58:30;;;;;;;8.70;2.83;;;9.50;73.90;;;;;;4100885;29;20043;-77
2024/02/07 09:00:33;;;;;;;8.57;3.00;;;9.50;73.90;;;;;;4100834;29;20484;-76
2024/02/07 09:02:35;;;;;;;6.90;2.85;;;9.50;74.00;;;;;;4100959;29;20131;-77
2024/02/07 09:04:37;;;;;;;7.78;2.63;;;9.60;74.00;;;;;;4100908;29;20394;-77
2024/02/07 09:06:39;;;;;;;10.77;3.03;;;9.50;73.80;;;;;;4100894;29;20043;-77
2024/02/07 09:08:41;;;;;;;9.27;3.13;;;9.50;73.80;;;;;;4100748;29;20051;-76
2024/02/07 09:10:44;;;;;;;7.97;2.85;;;9.60;74.00;;;;;;4100892;29;20044;-76
2024/02/07 09:12:46;;;;;;;8.13;3.10;;;9.60;74.00;;;;;;4100848;29;20460;-77
2024/02/07 09:14:48;;;;;;;9.57;3.45;;;9.60;74.00;;;;;;4100790;29;20058;-77
2024/02/07 09:16:51;;;;;;;7.47;2.92;;;9.60;73.90;;;;;;4100805;29;20055;-76
2024/02/07 09:18:53;;;;;;;13.50;5.97;;;9.70;73.90;;;;;;4100567;29;20114;-77
2024/02/07 09:20:55;;;;;;;7.13;2.90;;;9.70;73.80;;;;;;4100949;29;20043;-77
2024/02/07 09:22:57;;;;;;;5.75;2.78;;;9.70;73.70;;;;;;4100663;29;20055;-77
2024/02/07 09:24:59;;;;;;;7.43;3.03;;;9.80;73.70;;;;;;4100643;29;20051;-76
2024/02/07 09:27:00;;;;;;;8.95;2.95;;;9.80;73.60;;;;;;4100625;29;20461;-76
2024/02/07 09:29:02;;;;;;;8.18;3.00;;;9.80;73.30;;;;;;4100508;29;20072;-77
2024/02/07 09:31:04;;;;;;;7.47;2.83;;;9.90;73.30;;;;;;4100559;29;20051;-77
2024/02/07 09:33:07;;;;;;;6.00;2.60;;;9.90;73.10;;;;;;4100610;29;20051;-77
2024/02/07 09:35:10;;;;;;;7.32;2.65;;;9.90;73.00;;;;;;4100309;29;20103;-77
2024/02/07 09:37:11;;;;;;;6.82;2.50;;;10.00;73.00;;;;;;4100354;28;20055;-76
2024/02/07 09:39:13;;;;;;;5.13;2.60;;;10.00;72.80;;;;;;4100538;29;20740;-76
2024/02/07 09:41:16;;;;;;;7.63;2.58;;;10.10;72.70;;;;;;4100321;29;20408;-77
2024/02/07 09:43:18;;;;;;;6.10;2.78;;;10.10;72.70;;;;;;4100611;29;20083;-77
2024/02/07 09:45:19;;;;;;;8.75;2.97;;;10.10;72.50;;;;;;4100606;29;20087;-76
2024/02/07 09:47:22;;;;;;;6.93;3.00;;;10.20;72.50;;;;;;4100094;29;20115;-77
2024/02/07 09:49:26;;;;;;;6.50;2.58;;;10.20;72.40;;;;;;4100485;29;20087;-76
2024/02/07 09:51:29;;;;;;;6.78;3.00;;;10.20;72.20;;;;;;4100203;29;20086;-76
2024/02/07 09:53:33;;;;;;;10.15;3.40;;;10.30;72.30;;;;;;4099899;29;20055;-77
2024/02/07 09:55:36;;;;;;;7.97;3.03;;;10.30;71.90;;;;;;4100582;29;20051;-76
2024/02/07 09:57:39;;;;;;;6.70;2.85;;;10.30;71.70;;;;;;4099867;29;20057;-77
2024/02/07 09:59:42;;;;;;;6.10;2.67;;;10.30;71.70;;;;;;4099389;28;20437;-76
2024/02/07 10:01:46;;;;;;;4.85;2.20;;;10.40;71.70;;;;;;4081838;29;20059;-77
2024/02/07 10:03:50;;;;;;;6.60;2.40;;;10.40;71.30;;;;;;4082334;29;20573;-77
2024/02/07 10:05:58;;;;;;;7.78;2.58;;;10.40;71.20;;;;;;4082282;29;20048;-77
2024/02/07 10:08:00;;;;;;;6.35;2.42;;;10.40;71.20;;;;;;4082184;29;20059;-77
2024/02/07 10:10:03;;;;;;;12.32;2.83;;;10.50;71.20;;;;;;4082302;29;20398;-77
2024/02/07 10:12:08;;;;;;;6.53;2.78;;;10.50;70.90;;;;;;4081616;29;20092;-77
2024/02/07 10:14:12;;;;;;;6.47;2.67;;;10.50;70.80;;;;;;4085512;29;20110;-76
2024/02/07 10:16:14;;;;;;;7.72;2.35;;;10.50;70.70;;;;;;4098085;29;20550;-76
2024/02/07 10:18:15;;;;;;;7.57;3.05;;;10.50;70.60;;;;;;4097989;29;20059;-75
2024/02/07 10:20:18;;;;;;;5.93;2.60;;;10.50;70.60;;;;;;4097904;29;20547;-75
2024/02/07 10:22:20;;;;;;;5.93;2.60;;;10.50;70.60;;;;;;4098053;29;20051;-76
2024/02/07 10:24:22;;;;;;;7.38;2.63;;;10.50;70.50;;;;;;4097844;29;20058;-75
2024/02/07 10:26:24;;;;;;;5.05;2.25;;;10.50;70.50;;;;;;4098257;29;20059;-75
2024/02/07 10:28:26;;;;;;;7.28;2.80;;;10.60;70.70;;;;;;4098050;29;20110;-75
2024/02/07 10:30:28;;;;;;;8.48;3.00;;;10.60;70.70;;;;;;4097868;29;20481;-75
2024/02/07 10:32:30;;;;;;;6.45;2.70;;;10.60;70.70;;;;;;4097559;29;20055;-75
2024/02/07 10:34:33;;;;;;;8.82;2.78;;;10.50;70.90;;;;;;4097796;29;20073;-76
2024/02/07 10:36:35;;;;;;;6.25;3.00;;;10.60;71.70;;;;;;4097698;29;20066;-75
2024/02/07 10:38:37;;;;;;;5.70;2.15;;;10.60;71.00;;;;;;4097759;29;20063;-76
2024/02/07 10:40:40;;;;;;;7.00;2.45;;;10.60;70.90;;;;;;4097646;29;20051;-75
2024/02/07 10:42:41;;;;;;;7.97;2.63;;;10.60;70.90;;;;;;4097528;29;20131;-77
2024/02/07 10:44:43;;;;;;;7.35;2.60;;;10.60;71.00;;;;;;4097870;29;20055;-75
2024/02/07 10:46:45;;;;;;;6.18;2.15;;;10.60;70.90;;;;;;4097853;29;20051;-76
2024/02/07 10:48:49;;;;;;;8.68;2.90;;;10.60;71.10;;;;;;4098872;28;20051;-76
2024/02/07 10:50:51;;;;;;;6.70;2.72;;;10.70;71.30;;;;;;4100889;29;20177;-76
2024/02/07 10:52:52;;;;;;;5.88;3.00;;;10.70;71.30;;;;;;4100826;29;20132;-76
2024/02/07 10:54:56;;;;;;;7.53;2.80;;;10.60;71.20;;;;;;4100806;29;20489;-76
2024/02/07 10:56:59;;;;;;;6.53;2.90;;;10.70;71.60;;;;;;4100814;29;20493;-76
2024/02/07 10:59:01;;;;;;;6.57;2.90;;;10.70;71.70;;;;;;4100382;29;20074;-77
2024/02/07 11:01:05;;;;;;;6.75;2.92;;;10.70;71.50;;;;;;4100290;29;20057;-77
2024/02/07 11:03:08;;;;;;;9.00;3.08;;;10.70;71.50;;;;;;4100615;29;20107;-76
2024/02/07 11:05:11;;;;;;;6.47;2.90;;;10.60;71.50;;;;;;4100431;29;20055;-76
2024/02/07 11:07:15;;;;;;;9.73;3.30;;;10.60;71.70;;;;;;4100495;29;20091;-76
2024/02/07 11:09:17;;;;;;;6.50;2.92;;;10.60;71.80;;;;;;4100567;29;20668;-76
2024/02/07 11:11:21;;;;;;;6.00;2.67;;;10.60;71.70;;;;;;4100469;29;20055;-76
2024/02/07 11:13:23;;;;;;;9.00;4.22;;;10.60;71.50;;;;;;4100143;29;20405;-76
2024/02/07 11:15:24;;;;;;;8.02;2.97;;;10.60;72.00;;;;;;4098575;29;20063;-76
2024/02/07 11:17:26;;;;;;;5.90;2.65;;;10.60;71.80;;;;;;4100337;29;20051;-76
2024/02/07 11:19:28;;;;;;;8.10;2.85;;;10.60;71.60;;;;;;4100478;29;20560;-76
2024/02/07 11:21:36;;;;;;;6.38;2.65;;;10.60;71.70;;;;;;4100481;29;20050;-76
2024/02/07 11:23:39;;;;;;;8.25;2.90;;;10.60;71.60;;;;;;4100628;29;20556;-75
2024/02/07 11:25:43;;;;;;;7.63;2.38;;;10.60;71.80;;;;;;4100608;29;20059;-75
2024/02/07 11:27:46;;;;;;;6.63;2.60;;;10.50;72.20;;;;;;4100328;29;20212;-76
2024/02/07 11:29:48;;;;;;;6.30;2.40;;;10.60;72.30;;;;;;4100202;29;20051;-76
2024/02/07 11:31:54;;;;;;;6.72;2.33;;;10.50;72.40;;;;;;4100263;29;20111;-76
2024/02/07 11:33:57;;;;;;;7.20;2.38;;;10.60;72.40;;;;;;4099841;29;20043;-76
2024/02/07 11:36:06;;;;;;;6.07;2.40;;;10.60;72.50;;;;;;4099876;29;20102;-76
2024/02/07 11:38:11;;;;;;;7.07;2.40;;;10.60;72.60;;;;;;4100381;29;20081;-76
2024/02/07 11:40:15;;;;;;;7.05;2.80;;;10.60;72.60;;;;;;4100223;29;20061;-76
2024/02/07 11:42:19;;;;;;;5.63;2.42;;;10.60;72.70;;;;;;4100072;29;20400;-76
2024/02/07 11:44:23;;;;;;;6.97;2.47;;;10.60;72.70;;;;;;4099966;29;20128;-76
2024/02/07 11:46:26;;;;;;;6.35;2.50;;;10.60;72.80;;;;;;4100062;29;20174;-75
2024/02/07 11:48:28;;;;;;;7.97;2.80;;;10.60;72.80;;;;;;4099671;29;20053;-76
2024/02/07 11:50:37;;;;;;;7.65;2.40;;;10.60;72.80;;;;;;4100284;29;20567;-76
2024/02/07 11:52:40;;;;;;;5.97;2.53;;;10.60;72.60;;;;;;4099941;29;20058;-76
2024/02/07 11:54:42;;;;;;;5.38;2.58;;;10.70;72.50;;;;;;4099966;29;20110;-76
2024/02/07 11:56:55;;;;;;;7.70;2.47;;;10.70;72.70;;;;;;4099920;29;20544;-76
2024/02/07 11:58:57;;;;;;;6.05;2.83;;;10.80;72.80;;;;;;4099963;29;20063;-76
2024/02/07 12:00:59;;;;;;;7.78;3.58;;;10.70;72.50;;;;;;4098026;29;20090;-76
2024/02/07 12:03:01;;;;;;;7.90;3.30;;;10.80;72.50;;;;;;4099864;29;20074;-76
2024/02/07 12:05:04;;;;;;;7.68;3.30;;;10.80;72.70;;;;;;4099691;29;20051;-76
2024/02/07 12:07:06;;;;;;;6.88;2.50;;;10.80;72.50;;;;;;4099660;29;20090;-76
2024/02/07 12:09:09;;;;;;;6.35;2.60;;;10.80;72.40;;;;;;4099668;29;20449;-76
2024/02/07 12:11:11;;;;;;;6.72;2.70;;;10.90;72.30;;;;;;4099579;29;20079;-76
2024/02/07 12:13:12;;;;;;;7.00;2.60;;;10.80;72.40;;;;;;4099330;29;20047;-76
2024/02/07 12:15:14;;;;;;;6.15;2.33;;;10.90;72.40;;;;;;4097818;29;20070;-76
2024/02/07 12:17:18;;;;;;;6.28;2.40;;;10.90;73.00;;;;;;4099582;29;20099;-76
2024/02/07 12:19:21;;;;;;;6.07;2.50;;;10.80;72.70;;;;;;4100030;29;20081;-76
2024/02/07 12:21:23;;;;;;;5.93;2.10;;;10.90;72.50;;;;;;4099728;29;20489;-76
2024/02/07 12:23:24;;;;;;;4.63;1.95;;;10.90;72.20;;;;;;4099423;29;20057;-76
2024/02/07 12:25:27;;;;;;;4.80;1.98;;;11.00;72.00;;;;;;4099169;29;20090;-76
2024/02/07 12:27:29;;;;;;;4.40;2.10;;;11.20;71.80;;;;;;4099295;29;20051;-77
2024/02/07 12:29:31;;;;;;;7.85;2.42;;;11.40;71.20;;;;;;4099153;29;20541;-77
2024/02/07 12:31:33;;;;;;;5.53;1.92;;;11.50;70.60;;;;;;4099075;29;20047;-76
2024/02/07 12:33:36;;;;;;;5.75;2.00;;;11.40;70.30;;;;;;4099084;29;20382;-76
2024/02/07 12:35:52;;;;;;;3.58;1.58;;;11.50;70.20;;;;;;4098996;29;20059;-76
2024/02/07 12:37:57;;;;;;;4.35;1.85;;;11.50;70.00;;;;;;4099214;29;20138;-76
2024/02/07 12:39:59;;;;;;;5.70;1.70;;;11.60;70.10;;;;;;4099180;29;20059;-76
2024/02/07 12:42:04;;;;;;;4.97;1.95;;;11.50;69.80;;;;;;4099158;29;20059;-76
2024/02/07 12:44:08;;;;;;;3.22;1.25;;;11.50;70.20;;;;;;4099181;29;20047;-76
2024/02/07 12:46:10;;;;;;;4.05;1.50;;;11.40;70.30;;;;;;4099285;29;20055;-76
2024/02/07 12:48:12;;;;;;;3.78;1.50;;;11.40;70.00;;;;;;4098815;29;20055;-76
2024/02/07 12:50:15;;;;;;;4.25;1.50;;;11.40;69.50;;;;;;4099052;29;20062;-76
2024/02/07 12:52:18;;;;;;;4.63;1.70;;;11.50;69.50;;;;;;4098964;29;20091;-76
2024/02/07 12:54:19;;;;;;;2.95;1.10;;;11.40;68.60;;;;;;4098892;29;20122;-76
2024/02/07 12:56:23;;;;;;;3.75;1.27;;;11.50;68.40;;;;;;4099043;29;20047;-76
2024/02/07 12:58:24;;;;;;;2.90;1.17;;;11.50;68.00;;;;;;4098805;29;20055;-76
2024/02/07 13:00:26;;;;;;;4.03;1.20;;;11.40;68.20;;;;;;4097953;29;20059;-77
2024/02/07 13:02:28;;;;;;;5.45;1.40;;;11.30;68.40;;;;;;4098563;29;20091;-77
2024/02/07 13:04:31;;;;;;;3.15;1.10;;;11.30;68.80;;;;;;4098783;29;20102;-76
2024/02/07 13:06:36;;;;;;;4.05;1.42;;;11.30;68.70;;;;;;4098869;29;20079;-76
2024/02/07 13:08:38;;;;;;;3.20;1.30;;;11.30;68.40;;;;;;4098994;29;20063;-77
2024/02/07 13:10:39;;;;;;;4.60;1.20;;;11.30;68.40;;;;;;4098582;28;20106;-76
2024/02/07 13:12:41;;;;;;;3.55;1.30;;;11.30;68.60;;;;;;4098122;29;20478;-76
2024/02/07 13:14:42;;;;;;;3.30;1.40;;;11.30;69.00;;;;;;4096904;29;20051;-76
2024/02/07 13:16:45;;;;;;;5.82;1.42;;;11.30;69.10;;;;;;4098792;29;20576;-77
2024/02/07 13:18:47;;;;;;;4.10;1.40;;;11.40;68.80;;;;;;4098667;29;20103;-76
2024/02/07 13:20:49;;;;;;;4.85;1.40;;;11.50;68.50;;;;;;4098567;29;20051;-76
2024/02/07 13:22:52;;;;;;;3.72;1.40;;;11.50;68.30;;;;;;4098452;29;20465;-77
2024/02/07 13:24:53;;;;;;;3.70;1.40;;;11.40;68.30;;;;;;4098282;29;20055;-77
2024/02/07 13:26:56;;;;;;;3.92;1.13;;;11.50;68.50;;;;;;4098551;29;20139;-77
2024/02/07 13:28:58;;;;;;;3.60;1.45;;;11.50;68.20;;;;;;4098259;29;20058;-77
2024/02/07 13:31:03;;;;;;;4.57;1.30;;;11.50;68.50;;;;;;4098583;29;20050;-76
2024/02/07 13:33:05;;;;;;;3.10;1.20;;;11.60;68.50;;;;;;4098464;29;20047;-77
2024/02/07 13:35:08;;;;;;;5.13;2.15;;;11.40;68.20;;;;;;4098170;29;20563;-76
2024/02/07 13:37:09;;;;;;;4.72;1.58;;;11.40;68.60;;;;;;4097958;29;20469;-76
2024/02/07 13:39:12;;;;;;;4.65;1.60;;;11.50;68.40;;;;;;4098505;29;20118;-78
2024/02/07 13:41:19;;;;;;;4.45;1.63;;;11.40;68.30;;;;;;4098579;29;20059;-77
2024/02/07 13:43:21;;;;;;;4.70;1.48;;;11.40;68.10;;;;;;4098444;29;20097;-77
2024/02/07 13:45:23;;;;;;;4.57;1.58;;;11.50;68.20;;;;;;4098343;29;20057;-77
2024/02/07 13:47:25;;;;;;;5.45;1.65;;;11.50;68.10;;;;;;4098003;29;20481;-76
2024/02/07 13:49:26;;;;;;;3.60;1.20;;;11.40;68.30;;;;;;4097968;29;20063;-77
2024/02/07 13:51:28;;;;;;;4.40;1.65;;;11.40;68.50;;;;;;4098020;29;20080;-77
2024/02/07 13:53:30;;;;;;;4.75;1.63;;;11.30;68.90;;;;;;4098312;29;20066;-76
2024/02/07 13:55:33;;;;;;;5.63;1.48;;;11.30;69.10;;;;;;4098070;29;20051;-77
2024/02/07 13:57:36;;;;;;;3.63;1.20;;;11.30;69.30;;;;;;4098467;29;20389;-76
2024/02/07 13:59:38;;;;;;;4.07;1.60;;;11.30;69.40;;;;;;4097937;29;20058;-77
2024/02/07 14:01:41;;;;;;;4.00;1.38;;;11.30;69.20;;;;;;4097733;29;20111;-77
2024/02/07 14:03:43;;;;;;;5.38;1.52;;;11.30;68.90;;;;;;4097984;29;20464;-77
2024/02/07 14:05:44;;;;;;;3.38;1.38;;;11.30;69.10;;;;;;4098095;29;20444;-77
2024/02/07 14:07:46;;;;;;;3.63;1.60;;;11.30;69.00;;;;;;4098333;29;20047;-77
2024/02/07 14:09:48;;;;;;;4.55;1.55;;;11.20;69.10;;;;;;4098278;29;20055;-77
2024/02/07 14:11:51;;;;;;;3.05;1.35;;;11.20;69.40;;;;;;4097231;29;20055;-76
2024/02/07 14:13:52;;;;;;;4.43;1.45;;;11.20;68.90;;;;;;4096011;29;20549;-76
2024/02/07 14:15:54;;;;;;;3.70;1.50;;;11.20;68.70;;;;;;4097969;29;20055;-77
2024/02/07 14:17:57;;;;;;;5.35;1.58;;;11.20;69.00;;;;;;4097911;29;20141;-78
2024/02/07 14:19:59;;;;;;;3.92;1.67;;;11.10;69.20;;;;;;4097914;29;20098;-77
2024/02/07 14:22:00;;;;;;;4.88;1.65;;;11.10;69.00;;;;;;4097977;29;20118;-76
2024/02/07 14:24:03;;;;;;;5.18;1.50;;;11.10;69.20;;;;;;4099394;28;20047;-77
2024/02/07 14:26:05;;;;;;;4.00;1.60;;;11.10;69.50;;;;;;4101090;29;20051;-77
2024/02/07 14:28:08;;;;;;;4.30;1.40;;;11.10;68.90;;;;;;4101251;29;20552;-77
2024/02/07 14:30:09;;;;;;;5.05;1.40;;;11.10;68.80;;;;;;4100953;29;20098;-76
2024/02/07 14:32:11;;;;;;;4.57;1.58;;;11.10;68.90;;;;;;4101040;29;20047;-77
2024/02/07 14:34:13;;;;;;;4.07;1.48;;;11.10;68.70;;;;;;4101457;29;20047;-77
2024/02/07 14:36:15;;;;;;;5.40;1.73;;;11.10;68.50;;;;;;4100756;29;20091;-76
2024/02/07 14:38:18;;;;;;;4.53;1.73;;;11.10;68.60;;;;;;4100929;29;20043;-77
2024/02/07 14:40:20;;;;;;;5.18;1.70;;;11.10;69.10;;;;;;4100611;29;20048;-77
2024/02/07 14:42:22;;;;;;;4.38;1.70;;;11.10;68.30;;;;;;4100898;29;20051;-77
2024/02/07 14:44:25;;;;;;;6.25;1.70;;;11.10;68.20;;;;;;4100828;29;20055;-77
2024/02/07 14:46:27;;;;;;;5.68;1.67;;;11.10;68.20;;;;;;4100591;29;20051;-77
2024/02/07 14:48:28;;;;;;;6.00;1.98;;;11.10;68.40;;;;;;4100246;29;20051;-77
2024/02/07 14:50:30;;;;;;;5.07;1.70;;;11.10;68.60;;;;;;4100785;29;20051;-77
2024/02/07 14:52:32;;;;;;;5.28;1.70;;;11.10;68.60;;;;;;4100726;29;20127;-77
2024/02/07 14:54:34;;;;;;;5.68;1.52;;;11.10;68.60;;;;;;4100768;29;20465;-77
2024/02/07 14:56:36;;;;;;;5.20;1.83;;;11.10;68.70;;;;;;4100703;29;20413;-77
2024/02/07 14:58:37;;;;;;;4.80;1.80;;;11.10;68.80;;;;;;4100500;29;20103;-77
2024/02/07 15:00:40;;;;;;;4.88;1.63;;;11.10;68.80;;;;;;4100396;29;20055;-77
2024/02/07 15:02:42;;;;;;;5.05;1.85;;;11.10;69.00;;;;;;4100776;29;20055;-76
2024/02/07 15:04:43;;;;;;;6.07;1.83;;;11.00;68.90;;;;;;4100822;29;20438;-77
2024/02/07 15:06:44;;;;;;;5.93;1.60;;;11.00;69.00;;;;;;4100639;29;20461;-77
2024/02/07 15:08:46;;;;;;;5.22;1.95;;;11.00;68.80;;;;;;4100121;29;20042;-79
2024/02/07 15:10:48;;;;;;;6.30;2.10;;;11.00;69.00;;;;;;4100075;29;20067;-78
2024/02/07 15:12:50;;;;;;;7.13;1.70;;;11.00;69.00;;;;;;4099875;29;20059;-78
2024/02/07 15:14:52;;;;;;;5.85;2.20;;;10.90;69.10;;;;;;4098430;29;20461;-78
2024/02/07 15:16:55;;;;;;;6.47;2.00;;;10.90;69.50;;;;;;4100305;29;20062;-78
2024/02/07 15:18:57;;;;;;;7.80;2.03;;;10.90;69.60;;;;;;4100371;29;20047;-77
2024/02/07 15:20:59;;;;;;;4.88;1.73;;;10.80;69.60;;;;;;4100032;29;20047;-78
2024/02/07 15:23:01;;;;;;;4.45;1.60;;;10.80;70.00;;;;;;4100138;29;20051;-78
2024/02/07 15:25:02;;;;;;;3.95;1.60;;;10.80;69.90;;;;;;4099844;29;20055;-77
2024/02/07 15:27:04;;;;;;;9.13;2.10;;;10.80;70.00;;;;;;4100205;29;20058;-78
2024/02/07 15:29:06;;;;;;;4.90;2.10;;;10.80;70.20;;;;;;4100473;29;20055;-78
2024/02/07 15:31:08;;;;;;;6.15;1.95;;;10.80;70.10;;;;;;4100068;29;20058;-77
2024/02/07 15:33:13;;;;;;;4.13;1.90;;;10.80;70.30;;;;;;4100323;29;20059;-78
2024/02/07 15:35:15;;;;;;;4.63;1.83;;;10.80;70.10;;;;;;4099648;28;20051;-78
2024/02/07 15:37:16;;;;;;;7.70;1.88;;;10.80;69.80;;;;;;4099998;29;20098;-78
2024/02/07 15:39:19;;;;;;;8.00;2.28;;;10.80;69.90;;;;;;4100268;29;20063;-78
2024/02/07 15:41:21;;;;;;;5.22;1.80;;;10.80;70.20;;;;;;4099497;29;20047;-78
2024/02/07 15:43:23;;;;;;;5.65;2.05;;;10.70;70.30;;;;;;4100083;29;20093;-78
2024/02/07 15:45:24;;;;;;;5.38;2.20;;;10.70;70.50;;;;;;4100004;29;20219;-78
2024/02/07 15:47:26;;;;;;;5.20;2.10;;;10.70;70.70;;;;;;4099593;29;20051;-78
2024/02/07 15:49:31;;;;;;;5.30;2.05;;;10.70;71.00;;;;;;4084193;29;20052;-78
2024/02/07 15:51:33;;;;;;;8.65;4.10;;;10.70;70.90;;;;;;4083894;29;20062;-78
2024/02/07 15:53:36;;;;;;;6.55;2.58;;;10.60;70.90;;;;;;4097426;29;20456;-78
2024/02/07 15:55:38;;;;;;;7.65;2.13;;;10.60;71.30;;;;;;4099986;29;20047;-78
2024/02/07 15:57:39;;;;;;;7.82;2.00;;;10.60;71.10;;;;;;4099574;29;20106;-78
2024/02/07 15:59:41;;;;;;;5.95;2.15;;;10.60;71.40;;;;;;4099749;29;20119;-79
2024/02/07 16:01:43;;;;;;;6.82;2.10;;;10.60;71.40;;;;;;4098923;29;20432;-78
2024/02/07 16:03:45;;;;;;;7.25;2.22;;;10.60;71.30;;;;;;4099627;29;20051;-78
2024/02/07 16:05:48;;;;;;;5.78;2.47;;;10.60;71.40;;;;;;4099692;29;20059;-78
2024/02/07 16:07:49;;;;;;;5.32;1.98;;;10.60;71.40;;;;;;4099646;29;20453;-79
2024/02/07 16:09:51;;;;;;;6.05;2.22;;;10.50;71.80;;;;;;4099632;29;20051;-79
2024/02/07 16:11:53;;;;;;;6.97;2.60;;;10.50;72.00;;;;;;4099517;29;20047;-79
2024/02/07 16:13:55;;;;;;;4.15;1.88;;;10.50;71.90;;;;;;4096848;29;20499;-78
2024/02/07 16:15:57;;;;;;;5.72;1.90;;;10.50;72.00;;;;;;4099421;29;20054;-78
2024/02/07 16:17:59;;;;;;;6.50;2.33;;;10.50;72.00;;;;;;4099574;29;20082;-79
2024/02/07 16:20:01;;;;;;;7.15;2.65;;;10.50;72.10;;;;;;4099394;29;20059;-78
2024/02/07 16:22:04;;;;;;;8.95;2.00;;;10.50;72.20;;;;;;4099348;29;20054;-79
2024/02/07 16:24:08;;;;;;;7.25;2.40;;;10.50;72.30;;;;;;4098979;29;20058;-78
2024/02/07 16:26:12;;;;;;;6.90;2.03;;;10.50;72.20;;;;;;4099449;29;20075;-80
2024/02/07 16:28:13;;;;;;;4.20;1.92;;;10.40;72.00;;;;;;4099306;29;20067;-78
2024/02/07 16:30:16;;;;;;;5.82;2.03;;;10.40;72.30;;;;;;4092805;29;20059;-78
2024/02/07 16:32:18;;;;;;;6.95;2.10;;;10.40;72.50;;;;;;4084518;29;20070;-81
2024/02/07 16:34:20;;;;;;;6.90;1.92;;;10.40;72.60;;;;;;4094613;28;20047;-77
2024/02/07 16:36:21;;;;;;;5.88;2.08;;;10.40;72.50;;;;;;4089891;29;20051;-77
2024/02/07 16:38:26;;;;;;;5.47;2.10;;;10.40;72.80;;;;;;4086051;28;20557;-78
2024/02/07 16:40:28;;;;;;;8.35;2.05;;;10.40;72.80;;;;;;4086426;29;20134;-78